Time;durP1;ratioP1;P1;durP2;ratioP2;P2;SDS_P1;SDS_P2;PMS_P1;PMS_P2;Temp;Humidity;BMP_temperature;BMP_pressure;BME280_temperature;BME280_humidity;BME280_pressure;Samples;Min_cycle;Max_cycle;Signal;HPM_P1;HPM_P2
2024/02/19 00:00:00;;;;;;;0.32;0.32;;;;;;;;;;5001174;28;20090;-85
2024/02/19 00:02:26;;;;;;;0.20;0.20;;;;;;;;;;5001396;28;20481;-84
2024/02/19 00:04:52;;;;;;;0.10;0.10;;;;;;;;;;5001321;28;20073;-84
2024/02/19 00:07:18;;;;;;;0.10;0.10;;;;;;;;;;5001156;28;20038;-85
2024/02/19 00:09:44;;;;;;;0.10;0.10;;;;;;;;;;5001022;28;20093;-86
2024/02/19 00:12:11;;;;;;;0.10;0.10;;;;;;;;;;5001095;28;20484;-85
2024/02/19 00:14:37;;;;;;;0.10;0.10;;;;;;;;;;5001208;28;20120;-84
2024/02/19 00:17:03;;;;;;;0.10;0.10;;;;;;;;;;5001081;28;20128;-85
2024/02/19 00:19:31;;;;;;;0.32;0.32;;;;;;;;;;5017102;28;20049;-85
2024/02/19 00:21:57;;;;;;;0.10;0.10;;;;;;;;;;5017147;28;20188;-85
2024/02/19 00:24:24;;;;;;;0.10;0.10;;;;;;;;;;5017225;28;20042;-85
2024/02/19 00:26:50;;;;;;;0.40;0.40;;;;;;;;;;5000821;28;20056;-86
2024/02/19 00:29:16;;;;;;;0.10;0.10;;;;;;;;;;5000707;28;20473;-86
2024/02/19 00:31:43;;;;;;;0.38;0.15;;;;;;;;;;5000719;28;20095;-85
2024/02/19 00:34:09;;;;;;;0.10;0.10;;;;;;;;;;5001070;28;20398;-85
2024/02/19 00:36:35;;;;;;;0.20;0.20;;;;;;;;;;5016858;28;20509;-84
2024/02/19 00:39:01;;;;;;;0.30;0.30;;;;;;;;;;5016695;28;20041;-84
2024/02/19 00:41:27;;;;;;;0.10;0.10;;;;;;;;;;5016861;28;20072;-85
2024/02/19 00:43:55;;;;;;;0.10;0.10;;;;;;;;;;5000450;28;20477;-85
2024/02/19 00:46:21;;;;;;;0.10;0.10;;;;;;;;;;5000782;28;20043;-84
2024/02/19 00:48:47;;;;;;;0.10;0.10;;;;;;;;;;5000323;28;20041;-84
2024/02/19 00:51:14;;;;;;;0.10;0.10;;;;;;;;;;5000225;28;20044;-85
2024/02/19 00:53:40;;;;;;;0.10;0.10;;;;;;;;;;5016656;28;20045;-84
2024/02/19 00:56:06;;;;;;;0.10;0.10;;;;;;;;;;5000196;28;20093;-85
2024/02/19 00:58:32;;;;;;;0.10;0.10;;;;;;;;;;5000270;28;20056;-85
2024/02/19 01:00:58;;;;;;;3.97;0.20;;;;;;;;;;5000182;28;20048;-84
2024/02/19 01:03:28;;;;;;;0.40;0.40;;;;;;;;;;5000146;28;20044;-84
2024/02/19 01:05:54;;;;;;;1.10;0.20;;;;;;;;;;5016523;28;20040;-85
2024/02/19 01:08:20;;;;;;;0.10;0.10;;;;;;;;;;5000062;28;20045;-85
2024/02/19 01:10:46;;;;;;;0.10;0.10;;;;;;;;;;5016348;28;20037;-84
2024/02/19 01:13:12;;;;;;;0.10;0.10;;;;;;;;;;4999976;28;20565;-85
2024/02/19 01:15:39;;;;;;;0.10;0.10;;;;;;;;;;4999963;28;20088;-84
2024/02/19 01:18:05;;;;;;;0.10;0.10;;;;;;;;;;4999937;28;20107;-85
2024/02/19 01:20:31;;;;;;;0.10;0.10;;;;;;;;;;4999755;28;20046;-85
2024/02/19 01:22:58;;;;;;;0.10;0.10;;;;;;;;;;5016063;28;20037;-84
2024/02/19 01:25:24;;;;;;;0.10;0.10;;;;;;;;;;4999879;28;20037;-84
2024/02/19 01:27:51;;;;;;;0.20;0.20;;;;;;;;;;4999585;28;20433;-84
2024/02/19 01:30:17;;;;;;;0.10;0.10;;;;;;;;;;4999515;28;20038;-85
2024/02/19 01:32:43;;;;;;;0.10;0.10;;;;;;;;;;5015644;28;20544;-85
2024/02/19 01:35:09;;;;;;;0.10;0.10;;;;;;;;;;4999571;28;20120;-84
2024/02/19 01:37:35;;;;;;;0.10;0.10;;;;;;;;;;4999821;28;20033;-85
2024/02/19 01:40:07;;;;;;;0.10;0.10;;;;;;;;;;4999812;28;20485;-84
2024/02/19 01:42:34;;;;;;;0.20;0.20;;;;;;;;;;5000306;28;20099;-85
2024/02/19 01:45:00;;;;;;;0.10;0.10;;;;;;;;;;4999335;28;20043;-84
2024/02/19 01:47:26;;;;;;;0.10;0.10;;;;;;;;;;4999557;28;20045;-85
2024/02/19 01:49:52;;;;;;;0.10;0.10;;;;;;;;;;4998533;28;20374;-85
2024/02/19 01:52:18;;;;;;;0.10;0.10;;;;;;;;;;4999186;28;20046;-85
2024/02/19 01:54:44;;;;;;;0.20;0.20;;;;;;;;;;4998888;28;20114;-84
2024/02/19 01:57:10;;;;;;;0.20;0.20;;;;;;;;;;4999143;28;20045;-84
2024/02/19 01:59:36;;;;;;;0.10;0.10;;;;;;;;;;4998988;28;20045;-85
2024/02/19 02:02:02;;;;;;;0.10;0.10;;;;;;;;;;4999059;28;20151;-85
2024/02/19 02:04:28;;;;;;;0.10;0.10;;;;;;;;;;4999464;28;20406;-85
2024/02/19 02:06:54;;;;;;;0.65;0.20;;;;;;;;;;4998936;28;20039;-85
2024/02/19 02:09:20;;;;;;;0.10;0.10;;;;;;;;;;4998942;28;20042;-84
2024/02/19 02:11:47;;;;;;;0.10;0.10;;;;;;;;;;4998863;28;20077;-86
2024/02/19 02:14:13;;;;;;;2.42;0.28;;;;;;;;;;4998657;28;20045;-86
2024/02/19 02:16:39;;;;;;;0.10;0.10;;;;;;;;;;5015284;28;20044;-85
2024/02/19 02:19:05;;;;;;;0.10;0.10;;;;;;;;;;4998986;28;20137;-84
2024/02/19 02:21:31;;;;;;;0.10;0.10;;;;;;;;;;4998732;28;20048;-85
2024/02/19 02:23:57;;;;;;;0.75;0.75;;;;;;;;;;4998631;28;20048;-85
2024/02/19 02:26:23;;;;;;;0.10;0.10;;;;;;;;;;4998885;28;20439;-85
2024/02/19 02:28:49;;;;;;;0.10;0.10;;;;;;;;;;4998814;28;20056;-85
2024/02/19 02:31:15;;;;;;;0.20;0.20;;;;;;;;;;4998516;28;20050;-85
2024/02/19 02:33:41;;;;;;;0.10;0.10;;;;;;;;;;4998436;28;20053;-86
2024/02/19 02:36:10;;;;;;;0.10;0.10;;;;;;;;;;4998459;28;20052;-85
2024/02/19 02:38:36;;;;;;;0.10;0.10;;;;;;;;;;5015006;28;20522;-84
2024/02/19 02:41:02;;;;;;;0.10;0.10;;;;;;;;;;4998331;28;20049;-84
2024/02/19 02:43:28;;;;;;;0.10;0.10;;;;;;;;;;4998317;28;20038;-84
2024/02/19 02:45:54;;;;;;;0.10;0.10;;;;;;;;;;4998538;28;20091;-84
2024/02/19 02:48:20;;;;;;;0.10;0.10;;;;;;;;;;4998301;28;20038;-84
2024/02/19 02:50:47;;;;;;;0.10;0.10;;;;;;;;;;4998098;28;20076;-85
2024/02/19 02:53:13;;;;;;;0.20;0.20;;;;;;;;;;4998228;28;20053;-85
2024/02/19 02:55:39;;;;;;;0.10;0.10;;;;;;;;;;4998271;28;20489;-86
2024/02/19 02:58:05;;;;;;;0.10;0.10;;;;;;;;;;5014804;28;20041;-85
2024/02/19 03:00:31;;;;;;;0.10;0.10;;;;;;;;;;4997956;28;20099;-85
2024/02/19 03:02:57;;;;;;;0.13;0.13;;;;;;;;;;4998008;28;20068;-85
2024/02/19 03:05:24;;;;;;;0.52;0.52;;;;;;;;;;5014597;28;20080;-86
2024/02/19 03:07:50;;;;;;;0.10;0.10;;;;;;;;;;5014287;28;20033;-86
2024/02/19 03:10:17;;;;;;;0.10;0.10;;;;;;;;;;4998367;28;20501;-84
2024/02/19 03:12:43;;;;;;;0.10;0.10;;;;;;;;;;4998198;28;20443;-84
2024/02/19 03:15:09;;;;;;;0.10;0.10;;;;;;;;;;4998014;28;20132;-85
2024/02/19 03:17:35;;;;;;;0.10;0.10;;;;;;;;;;4998293;28;20090;-86
2024/02/19 03:20:04;;;;;;;0.10;0.10;;;;;;;;;;5014144;28;20396;-85
2024/02/19 03:22:30;;;;;;;0.10;0.10;;;;;;;;;;4998373;28;20045;-84
2024/02/19 03:24:57;;;;;;;0.10;0.10;;;;;;;;;;4997840;28;20040;-85
2024/02/19 03:27:23;;;;;;;0.10;0.10;;;;;;;;;;5014319;28;20064;-85
2024/02/19 03:29:49;;;;;;;0.10;0.10;;;;;;;;;;4997744;28;20037;-85
2024/02/19 03:32:15;;;;;;;0.10;0.10;;;;;;;;;;4998091;28;20396;-84
2024/02/19 03:34:41;;;;;;;0.10;0.10;;;;;;;;;;4997953;28;20393;-85
2024/02/19 03:37:08;;;;;;;0.10;0.10;;;;;;;;;;4998228;28;20095;-85
2024/02/19 03:39:34;;;;;;;0.10;0.10;;;;;;;;;;4997991;28;20041;-85
2024/02/19 03:42:01;;;;;;;0.10;0.10;;;;;;;;;;4997695;28;20041;-85
2024/02/19 03:44:27;;;;;;;0.10;0.10;;;;;;;;;;4997820;28;20124;-85
2024/02/19 03:46:53;;;;;;;0.10;0.10;;;;;;;;;;4997853;28;20477;-86
2024/02/19 03:49:19;;;;;;;0.10;0.10;;;;;;;;;;4998023;28;20055;-85
2024/02/19 03:51:45;;;;;;;0.10;0.10;;;;;;;;;;4997725;28;20500;-85
2024/02/19 03:54:11;;;;;;;0.10;0.10;;;;;;;;;;4997497;28;20508;-86
2024/02/19 03:56:37;;;;;;;0.10;0.10;;;;;;;;;;5014000;28;20052;-86
2024/02/19 03:59:03;;;;;;;0.10;0.10;;;;;;;;;;4997581;28;20044;-85
2024/02/19 04:01:29;;;;;;;0.10;0.10;;;;;;;;;;4997503;28;20048;-85
2024/02/19 04:03:55;;;;;;;0.10;0.10;;;;;;;;;;4997697;28;20042;-85
2024/02/19 04:06:21;;;;;;;0.10;0.10;;;;;;;;;;5013809;28;20048;-84
2024/02/19 04:08:47;;;;;;;0.10;0.10;;;;;;;;;;4997517;28;20041;-85
2024/02/19 04:11:16;;;;;;;0.10;0.10;;;;;;;;;;4997748;28;20045;-84
2024/02/19 04:13:42;;;;;;;0.10;0.10;;;;;;;;;;4998704;28;20095;-85
2024/02/19 04:16:11;;;;;;;0.10;0.10;;;;;;;;;;5001079;28;20041;-84
2024/02/19 04:18:38;;;;;;;0.10;0.10;;;;;;;;;;5017806;28;20052;-84
2024/02/19 04:21:04;;;;;;;0.10;0.10;;;;;;;;;;5000804;28;20041;-85
2024/02/19 04:23:30;;;;;;;0.10;0.10;;;;;;;;;;5001020;28;20543;-85
2024/02/19 04:25:56;;;;;;;0.10;0.10;;;;;;;;;;5000723;28;20045;-85
2024/02/19 04:28:22;;;;;;;0.10;0.10;;;;;;;;;;5001061;28;20397;-85
2024/02/19 04:30:48;;;;;;;0.15;0.15;;;;;;;;;;5000795;28;20543;-85
2024/02/19 04:33:14;;;;;;;0.10;0.10;;;;;;;;;;5000856;28;20037;-85
2024/02/19 04:35:40;;;;;;;0.10;0.10;;;;;;;;;;5000779;28;20320;-86
2024/02/19 04:38:06;;;;;;;0.10;0.10;;;;;;;;;;5016906;28;20060;-85
2024/02/19 04:40:32;;;;;;;0.10;0.10;;;;;;;;;;5000377;28;20049;-85
2024/02/19 04:42:59;;;;;;;0.10;0.10;;;;;;;;;;5000352;28;20090;-85
2024/02/19 04:45:25;;;;;;;0.10;0.10;;;;;;;;;;5016684;28;20122;-85
2024/02/19 04:47:51;;;;;;;0.10;0.10;;;;;;;;;;5000564;28;20042;-85
2024/02/19 04:50:17;;;;;;;0.10;0.10;;;;;;;;;;5016527;28;20045;-86
2024/02/19 04:52:43;;;;;;;0.10;0.10;;;;;;;;;;5000399;28;20041;-85
2024/02/19 04:55:10;;;;;;;0.10;0.10;;;;;;;;;;5016492;28;20409;-85
2024/02/19 04:57:36;;;;;;;0.10;0.10;;;;;;;;;;5000239;28;20037;-85
2024/02/19 05:00:02;;;;;;;0.10;0.10;;;;;;;;;;5000112;28;20128;-86
2024/02/19 05:02:28;;;;;;;0.10;0.10;;;;;;;;;;5016349;28;20473;-86
2024/02/19 05:04:55;;;;;;;0.10;0.10;;;;;;;;;;5000037;28;20069;-84
2024/02/19 05:07:21;;;;;;;0.10;0.10;;;;;;;;;;5000050;28;20500;-85
2024/02/19 05:09:47;;;;;;;0.10;0.10;;;;;;;;;;5000197;28;20389;-86
2024/02/19 05:12:13;;;;;;;0.10;0.10;;;;;;;;;;5000068;28;20103;-85
2024/02/19 05:14:39;;;;;;;0.10;0.10;;;;;;;;;;4999969;28;20041;-85
2024/02/19 05:17:05;;;;;;;0.10;0.10;;;;;;;;;;5000323;28;20037;-85
2024/02/19 05:19:31;;;;;;;0.10;0.10;;;;;;;;;;5000044;28;20045;-84
2024/02/19 05:21:57;;;;;;;0.10;0.10;;;;;;;;;;4999618;28;20125;-85
2024/02/19 05:24:23;;;;;;;0.10;0.10;;;;;;;;;;4999888;28;20435;-85
2024/02/19 05:26:49;;;;;;;0.10;0.10;;;;;;;;;;5000091;28;20462;-85
2024/02/19 05:29:15;;;;;;;0.10;0.10;;;;;;;;;;4999735;28;20041;-85
2024/02/19 05:31:41;;;;;;;0.10;0.10;;;;;;;;;;4999674;28;20045;-85
2024/02/19 05:34:08;;;;;;;0.10;0.10;;;;;;;;;;4999741;28;20087;-85
2024/02/19 05:36:34;;;;;;;0.10;0.10;;;;;;;;;;4999737;28;20041;-85
2024/02/19 05:39:00;;;;;;;0.10;0.10;;;;;;;;;;4999858;28;20045;-84
2024/02/19 05:41:26;;;;;;;0.10;0.10;;;;;;;;;;4999441;28;20561;-86
2024/02/19 05:43:53;;;;;;;0.10;0.10;;;;;;;;;;5015625;28;20037;-86
2024/02/19 05:46:19;;;;;;;0.10;0.10;;;;;;;;;;4999325;28;20044;-85
2024/02/19 05:48:45;;;;;;;0.10;0.10;;;;;;;;;;4999422;28;20116;-85
2024/02/19 05:51:12;;;;;;;0.10;0.10;;;;;;;;;;4999247;28;20484;-85
2024/02/19 05:53:38;;;;;;;0.10;0.10;;;;;;;;;;4999250;28;20432;-86
2024/02/19 05:56:04;;;;;;;0.10;0.10;;;;;;;;;;4999085;28;20145;-86
2024/02/19 05:58:30;;;;;;;0.10;0.10;;;;;;;;;;4999177;28;20085;-86
2024/02/19 06:00:56;;;;;;;0.10;0.10;;;;;;;;;;4998875;28;20061;-85
2024/02/19 06:03:24;;;;;;;0.10;0.10;;;;;;;;;;4999002;28;20043;-85
2024/02/19 06:05:50;;;;;;;0.10;0.10;;;;;;;;;;4999465;28;20041;-85
2024/02/19 06:08:17;;;;;;;0.10;0.10;;;;;;;;;;4999164;28;20080;-86
2024/02/19 06:10:46;;;;;;;0.10;0.10;;;;;;;;;;4999216;28;20095;-86
2024/02/19 06:13:12;;;;;;;0.10;0.10;;;;;;;;;;4999770;28;20048;-85
2024/02/19 06:15:38;;;;;;;0.10;0.10;;;;;;;;;;4998901;28;20044;-86
2024/02/19 06:18:05;;;;;;;0.10;0.10;;;;;;;;;;4998648;28;20041;-85
2024/02/19 06:20:31;;;;;;;0.10;0.10;;;;;;;;;;4998740;28;20224;-85
2024/02/19 06:22:57;;;;;;;0.10;0.10;;;;;;;;;;4998959;28;20428;-86
2024/02/19 06:25:23;;;;;;;0.10;0.10;;;;;;;;;;4998839;28;20037;-86
2024/02/19 06:27:49;;;;;;;0.10;0.10;;;;;;;;;;4998608;28;20485;-86
2024/02/19 06:30:17;;;;;;;0.10;0.10;;;;;;;;;;4998730;28;20042;-86
2024/02/19 06:32:43;;;;;;;0.10;0.10;;;;;;;;;;4998699;28;20073;-87
2024/02/19 06:35:09;;;;;;;0.25;0.25;;;;;;;;;;4998573;28;20076;-87
2024/02/19 06:37:36;;;;;;;0.10;0.10;;;;;;;;;;4997946;28;20044;-86
2024/02/19 06:40:02;;;;;;;0.10;0.10;;;;;;;;;;4998368;28;20091;-87
2024/02/19 06:42:28;;;;;;;0.10;0.10;;;;;;;;;;4998371;28;20045;-87
2024/02/19 06:44:54;;;;;;;0.10;0.10;;;;;;;;;;4998354;28;20069;-87
2024/02/19 06:47:23;;;;;;;0.10;0.10;;;;;;;;;;4998791;28;20524;-88
2024/02/19 06:49:49;;;;;;;0.10;0.10;;;;;;;;;;4998560;28;20144;-87
2024/02/19 06:52:15;;;;;;;0.10;0.10;;;;;;;;;;4998457;28;20041;-87
2024/02/19 06:54:41;;;;;;;0.10;0.10;;;;;;;;;;4998267;28;20517;-87
2024/02/19 06:57:07;;;;;;;0.10;0.10;;;;;;;;;;4998329;28;20084;-87
2024/02/19 06:59:33;;;;;;;6.45;0.38;;;;;;;;;;4998359;28;20042;-87
2024/02/19 07:02:00;;;;;;;0.10;0.10;;;;;;;;;;4997992;28;20038;-87
2024/02/19 07:04:26;;;;;;;0.10;0.10;;;;;;;;;;4998200;28;20038;-87
2024/02/19 07:06:54;;;;;;;0.10;0.10;;;;;;;;;;4998117;28;20041;-88
2024/02/19 07:09:21;;;;;;;0.10;0.10;;;;;;;;;;4998842;28;20045;-88
2024/02/19 07:11:47;;;;;;;0.10;0.10;;;;;;;;;;4998126;28;20171;-87
2024/02/19 07:14:13;;;;;;;0.10;0.10;;;;;;;;;;4997887;28;20124;-86
2024/02/19 07:16:39;;;;;;;0.10;0.10;;;;;;;;;;4997882;28;20099;-86
2024/02/19 07:19:05;;;;;;;0.10;0.10;;;;;;;;;;4997910;28;20046;-86
2024/02/19 07:21:31;;;;;;;0.10;0.10;;;;;;;;;;5014228;28;20068;-87
2024/02/19 07:23:57;;;;;;;0.10;0.10;;;;;;;;;;4997112;28;20461;-86
2024/02/19 07:26:23;;;;;;;0.17;0.17;;;;;;;;;;5013222;28;20037;-88
2024/02/19 07:28:49;;;;;;;0.10;0.10;;;;;;;;;;5014169;28;20077;-87
2024/02/19 07:31:15;;;;;;;0.10;0.10;;;;;;;;;;4997928;28;20044;-87
2024/02/19 07:33:41;;;;;;;0.10;0.10;;;;;;;;;;4997731;28;20042;-87
2024/02/19 07:36:07;;;;;;;0.20;0.20;;;;;;;;;;4998156;28;20408;-87
2024/02/19 07:38:33;;;;;;;0.10;0.10;;;;;;;;;;4997814;28;20041;-86
2024/02/19 07:40:59;;;;;;;0.10;0.10;;;;;;;;;;4997503;28;20042;-87
2024/02/19 07:43:26;;;;;;;0.10;0.10;;;;;;;;;;4997837;28;20033;-86
2024/02/19 07:45:52;;;;;;;0.10;0.10;;;;;;;;;;4997710;28;20489;-86
2024/02/19 07:48:18;;;;;;;0.10;0.10;;;;;;;;;;4998888;28;20049;-86
2024/02/19 07:50:44;;;;;;;0.10;0.10;;;;;;;;;;5001622;28;20072;-87
2024/02/19 07:53:10;;;;;;;0.10;0.10;;;;;;;;;;5001522;28;20044;-85
2024/02/19 07:55:37;;;;;;;0.10;0.10;;;;;;;;;;4998186;28;20124;-88
2024/02/19 07:58:04;;;;;;;0.10;0.10;;;;;;;;;;5014264;28;20133;-86
2024/02/19 08:00:30;;;;;;;0.60;0.20;;;;;;;;;;5013998;28;20497;-86
2024/02/19 08:02:56;;;;;;;0.10;0.10;;;;;;;;;;5014481;28;20042;-85
2024/02/19 08:05:22;;;;;;;0.10;0.10;;;;;;;;;;5009781;28;20073;-86
2024/02/19 08:07:48;;;;;;;0.10;0.10;;;;;;;;;;4997759;28;20048;-85
2024/02/19 08:10:14;;;;;;;0.10;0.10;;;;;;;;;;4997764;28;20034;-84
2024/02/19 08:12:40;;;;;;;0.10;0.10;;;;;;;;;;4997919;28;20038;-84
2024/02/19 08:15:08;;;;;;;0.10;0.10;;;;;;;;;;5013943;28;20042;-83
2024/02/19 08:17:34;;;;;;;0.10;0.10;;;;;;;;;;4997848;28;20077;-84
2024/02/19 08:20:00;;;;;;;0.10;0.10;;;;;;;;;;5013686;28;20064;-84
2024/02/19 08:22:26;;;;;;;0.10;0.10;;;;;;;;;;4997433;28;20481;-84
2024/02/19 08:24:52;;;;;;;0.10;0.10;;;;;;;;;;4997509;28;20038;-86
2024/02/19 08:27:18;;;;;;;0.10;0.10;;;;;;;;;;5013730;28;20044;-85
2024/02/19 08:29:44;;;;;;;0.10;0.10;;;;;;;;;;4997438;28;20524;-85
2024/02/19 08:32:10;;;;;;;0.10;0.10;;;;;;;;;;5013978;28;20384;-84
2024/02/19 08:34:36;;;;;;;0.10;0.10;;;;;;;;;;4997276;28;20052;-85
2024/02/19 08:37:02;;;;;;;0.10;0.10;;;;;;;;;;4997482;28;20053;-85
2024/02/19 08:39:29;;;;;;;0.10;0.10;;;;;;;;;;5013431;28;20073;-84
2024/02/19 08:41:55;;;;;;;0.10;0.10;;;;;;;;;;4996921;28;20501;-84
2024/02/19 08:44:21;;;;;;;0.10;0.10;;;;;;;;;;5013580;28;20042;-84
2024/02/19 08:46:47;;;;;;;0.10;0.10;;;;;;;;;;4997148;28;20041;-86
2024/02/19 08:49:13;;;;;;;0.10;0.10;;;;;;;;;;4997098;28;20033;-82
2024/02/19 08:51:40;;;;;;;0.20;0.20;;;;;;;;;;5013235;28;20049;-82
2024/02/19 08:54:06;;;;;;;0.10;0.10;;;;;;;;;;4996987;28;20493;-82
2024/02/19 08:56:32;;;;;;;0.10;0.10;;;;;;;;;;5012705;28;20062;-83
2024/02/19 08:59:01;;;;;;;0.10;0.10;;;;;;;;;;4996452;28;20038;-83
2024/02/19 09:01:27;;;;;;;0.10;0.10;;;;;;;;;;5013075;28;20095;-83
2024/02/19 09:03:53;;;;;;;0.10;0.10;;;;;;;;;;5014447;28;20046;-82
2024/02/19 09:06:19;;;;;;;0.10;0.10;;;;;;;;;;5013150;28;20041;-85
2024/02/19 09:08:45;;;;;;;0.10;0.10;;;;;;;;;;5012477;28;20611;-83
2024/02/19 09:11:11;;;;;;;0.10;0.10;;;;;;;;;;5012216;28;20065;-84
2024/02/19 09:13:37;;;;;;;0.10;0.10;;;;;;;;;;4995871;28;20046;-84
2024/02/19 09:16:03;;;;;;;0.22;0.22;;;;;;;;;;5011474;28;20042;-84
2024/02/19 09:18:30;;;;;;;0.10;0.10;;;;;;;;;;5012084;28;20046;-85
2024/02/19 09:20:56;;;;;;;0.10;0.10;;;;;;;;;;4995739;28;20042;-84
2024/02/19 09:23:22;;;;;;;0.10;0.10;;;;;;;;;;5012538;28;20042;-84
2024/02/19 09:25:48;;;;;;;0.10;0.10;;;;;;;;;;5012474;28;20042;-86
2024/02/19 09:28:14;;;;;;;0.10;0.10;;;;;;;;;;5012675;28;20038;-87
2024/02/19 09:30:40;;;;;;;0.10;0.10;;;;;;;;;;5012454;28;20494;-88
2024/02/19 09:33:06;;;;;;;0.10;0.10;;;;;;;;;;5011724;28;20034;-85
2024/02/19 09:35:32;;;;;;;0.98;0.20;;;;;;;;;;5012397;28;20064;-86
2024/02/19 09:37:58;;;;;;;0.10;0.10;;;;;;;;;;4996094;28;20045;-85
2024/02/19 09:40:25;;;;;;;0.10;0.10;;;;;;;;;;4996174;28;20080;-86
2024/02/19 09:42:51;;;;;;;0.10;0.10;;;;;;;;;;4996273;28;20038;-86
2024/02/19 09:45:19;;;;;;;0.10;0.10;;;;;;;;;;4996233;28;20217;-86
2024/02/19 09:47:45;;;;;;;0.10;0.10;;;;;;;;;;4996214;28;20144;-86
2024/02/19 09:50:12;;;;;;;0.10;0.10;;;;;;;;;;4995834;28;20037;-85
2024/02/19 09:52:39;;;;;;;0.10;0.10;;;;;;;;;;4995826;28;20043;-86
2024/02/19 09:55:06;;;;;;;0.17;0.17;;;;;;;;;;4995856;28;20049;-87
2024/02/19 09:57:32;;;;;;;0.10;0.10;;;;;;;;;;4995873;28;20057;-85
2024/02/19 10:00:03;;;;;;;0.10;0.10;;;;;;;;;;4995983;28;20397;-85
2024/02/19 10:02:29;;;;;;;0.20;0.20;;;;;;;;;;4996452;28;20078;-86
2024/02/19 10:04:55;;;;;;;0.20;0.20;;;;;;;;;;4996051;28;20077;-86
2024/02/19 10:07:21;;;;;;;0.10;0.10;;;;;;;;;;5012076;28;20090;-86
2024/02/19 10:09:47;;;;;;;0.10;0.10;;;;;;;;;;4995103;28;20100;-86
2024/02/19 10:12:13;;;;;;;0.10;0.10;;;;;;;;;;4994762;28;20062;-86
2024/02/19 10:14:39;;;;;;;0.10;0.10;;;;;;;;;;4995774;28;20050;-86
2024/02/19 10:17:06;;;;;;;0.20;0.20;;;;;;;;;;4995795;28;20049;-86
2024/02/19 10:19:32;;;;;;;0.10;0.10;;;;;;;;;;5011563;28;20042;-86
2024/02/19 10:21:58;;;;;;;0.10;0.10;;;;;;;;;;4994659;28;20100;-86
2024/02/19 10:24:26;;;;;;;0.10;0.10;;;;;;;;;;4995540;28;20038;-86
2024/02/19 10:26:52;;;;;;;0.13;0.13;;;;;;;;;;4995441;28;20046;-86
2024/02/19 10:29:18;;;;;;;0.20;0.20;;;;;;;;;;4995592;28;20034;-86
2024/02/19 10:31:44;;;;;;;0.10;0.10;;;;;;;;;;4995476;28;20117;-88
2024/02/19 10:34:13;;;;;;;0.10;0.10;;;;;;;;;;4995591;28;20037;-84
2024/02/19 10:36:39;;;;;;;0.10;0.10;;;;;;;;;;4995639;28;20050;-85
2024/02/19 10:39:05;;;;;;;0.10;0.10;;;;;;;;;;4995400;28;20394;-84
2024/02/19 10:41:31;;;;;;;0.10;0.10;;;;;;;;;;4995484;28;20046;-83
2024/02/19 10:43:57;;;;;;;0.10;0.10;;;;;;;;;;5011739;28;20121;-83
2024/02/19 10:46:23;;;;;;;0.10;0.10;;;;;;;;;;4995420;28;20385;-83
2024/02/19 10:48:53;;;;;;;0.28;0.28;;;;;;;;;;4995120;28;20041;-82
2024/02/19 10:51:19;;;;;;;0.10;0.10;;;;;;;;;;4995172;28;20382;-83
2024/02/19 10:53:45;;;;;;;0.20;0.20;;;;;;;;;;5011146;28;20132;-83
2024/02/19 10:56:18;;;;;;;0.20;0.20;;;;;;;;;;5011150;28;20064;-83
2024/02/19 10:58:54;;;;;;;0.10;0.10;;;;;;;;;;5011216;28;20050;-82
2024/02/19 11:01:22;;;;;;;0.10;0.10;;;;;;;;;;5010968;28;20091;-82
2024/02/19 11:03:48;;;;;;;0.10;0.10;;;;;;;;;;5011398;28;20048;-83
2024/02/19 11:06:14;;;;;;;0.32;0.32;;;;;;;;;;5011393;28;20065;-83
2024/02/19 11:08:50;;;;;;;0.30;0.30;;;;;;;;;;5011069;28;20038;-82
2024/02/19 11:11:18;;;;;;;0.10;0.10;;;;;;;;;;5011234;28;20073;-82
2024/02/19 11:13:46;;;;;;;0.10;0.10;;;;;;;;;;4994734;28;20456;-82
2024/02/19 11:16:19;;;;;;;0.10;0.10;;;;;;;;;;5011043;28;20210;-83
2024/02/19 11:18:45;;;;;;;0.17;0.17;;;;;;;;;;5011152;28;20052;-82
2024/02/19 11:21:11;;;;;;;0.10;0.10;;;;;;;;;;4994597;28;20100;-83
2024/02/19 11:23:37;;;;;;;0.10;0.10;;;;;;;;;;5013682;28;20038;-83
2024/02/19 11:26:03;;;;;;;0.10;0.10;;;;;;;;;;4998705;28;20493;-83
2024/02/19 11:28:33;;;;;;;0.20;0.20;;;;;;;;;;5015594;28;20042;-83
2024/02/19 11:31:03;;;;;;;0.10;0.10;;;;;;;;;;5000509;28;20042;-84
2024/02/19 11:33:29;;;;;;;0.10;0.10;;;;;;;;;;5000505;28;20042;-85
2024/02/19 11:35:58;;;;;;;0.10;0.10;;;;;;;;;;5000140;28;20041;-83
2024/02/19 11:38:32;;;;;;;0.10;0.10;;;;;;;;;;5015969;28;20085;-84
2024/02/19 11:40:58;;;;;;;0.10;0.10;;;;;;;;;;4998838;28;20037;-83
2024/02/19 11:43:24;;;;;;;0.20;0.20;;;;;;;;;;4998217;28;20576;-83
2024/02/19 11:45:53;;;;;;;0.10;0.10;;;;;;;;;;5014569;28;20038;-83
2024/02/19 11:48:19;;;;;;;0.10;0.10;;;;;;;;;;4998668;28;20037;-82
2024/02/19 11:50:45;;;;;;;0.10;0.10;;;;;;;;;;4997361;28;20049;-83
2024/02/19 11:53:12;;;;;;;0.10;0.10;;;;;;;;;;4998140;28;20042;-82
2024/02/19 11:55:39;;;;;;;0.20;0.20;;;;;;;;;;4997910;28;20379;-81
2024/02/19 11:58:08;;;;;;;0.10;0.10;;;;;;;;;;4998449;28;20104;-82
2024/02/19 12:00:35;;;;;;;0.10;0.10;;;;;;;;;;4997880;28;20539;-81
2024/02/19 12:03:03;;;;;;;0.10;0.10;;;;;;;;;;4998569;28;20405;-81
2024/02/19 12:05:29;;;;;;;0.10;0.10;;;;;;;;;;5014476;28;20425;-84
2024/02/19 12:07:55;;;;;;;0.10;0.10;;;;;;;;;;4997931;28;20038;-83
2024/02/19 12:10:21;;;;;;;0.10;0.10;;;;;;;;;;5013820;28;20192;-84
2024/02/19 12:12:47;;;;;;;0.10;0.10;;;;;;;;;;4998078;28;20052;-84
2024/02/19 12:15:16;;;;;;;0.10;0.10;;;;;;;;;;4998091;28;20046;-83
2024/02/19 12:17:43;;;;;;;0.10;0.10;;;;;;;;;;5013703;28;20046;-82
2024/02/19 12:20:12;;;;;;;0.10;0.10;;;;;;;;;;4997746;28;20073;-82
2024/02/19 12:22:40;;;;;;;0.10;0.10;;;;;;;;;;4997788;28;20049;-83
2024/02/19 12:25:06;;;;;;;0.10;0.10;;;;;;;;;;5030434;28;20077;-82
2024/02/19 12:27:33;;;;;;;0.10;0.10;;;;;;;;;;4997463;28;20103;-83
2024/02/19 12:29:59;;;;;;;0.10;0.10;;;;;;;;;;5015069;28;20125;-82
2024/02/19 12:32:25;;;;;;;0.10;0.10;;;;;;;;;;5014980;28;20042;-83
2024/02/19 12:34:53;;;;;;;0.40;0.40;;;;;;;;;;5012949;28;20370;-83
2024/02/19 12:37:19;;;;;;;0.20;0.20;;;;;;;;;;5013517;28;20053;-83
2024/02/19 12:39:45;;;;;;;0.10;0.10;;;;;;;;;;5013718;28;20042;-83
2024/02/19 12:42:11;;;;;;;0.10;0.10;;;;;;;;;;5013040;28;20201;-82
2024/02/19 12:44:38;;;;;;;0.20;0.20;;;;;;;;;;4997289;28;20124;-82
2024/02/19 12:47:07;;;;;;;0.10;0.10;;;;;;;;;;4997418;28;20045;-83
2024/02/19 12:49:33;;;;;;;0.10;0.10;;;;;;;;;;4997482;28;20038;-83
2024/02/19 12:52:08;;;;;;;0.20;0.20;;;;;;;;;;4996869;28;20045;-84
2024/02/19 12:54:34;;;;;;;0.20;0.20;;;;;;;;;;5012961;28;20058;-85
2024/02/19 12:57:00;;;;;;;0.10;0.10;;;;;;;;;;4997367;28;20046;-84
2024/02/19 12:59:26;;;;;;;0.10;0.10;;;;;;;;;;4996898;28;20485;-82
2024/02/19 13:01:52;;;;;;;0.10;0.10;;;;;;;;;;4996822;28;20064;-83
2024/02/19 13:04:19;;;;;;;0.10;0.10;;;;;;;;;;4997000;28;20394;-82
2024/02/19 13:06:45;;;;;;;0.10;0.10;;;;;;;;;;4996751;28;20037;-82
2024/02/19 13:09:11;;;;;;;0.10;0.10;;;;;;;;;;4996885;28;20091;-82
2024/02/19 13:11:40;;;;;;;0.10;0.10;;;;;;;;;;4996768;28;20409;-82
2024/02/19 13:14:07;;;;;;;0.10;0.10;;;;;;;;;;4997365;28;20168;-82
2024/02/19 13:16:35;;;;;;;0.10;0.10;;;;;;;;;;4997109;28;20046;-82
2024/02/19 13:19:01;;;;;;;0.10;0.10;;;;;;;;;;4996854;28;20454;-82
2024/02/19 13:21:27;;;;;;;0.10;0.10;;;;;;;;;;4996614;28;20049;-83
2024/02/19 13:23:53;;;;;;;0.10;0.10;;;;;;;;;;4996642;28;20069;-82
2024/02/19 13:26:21;;;;;;;0.70;0.20;;;;;;;;;;4996577;28;20496;-82
2024/02/19 13:28:47;;;;;;;0.10;0.10;;;;;;;;;;4996373;28;20505;-83
2024/02/19 13:31:13;;;;;;;0.10;0.10;;;;;;;;;;4996294;28;20053;-83
2024/02/19 13:33:40;;;;;;;0.10;0.10;;;;;;;;;;4996398;28;20042;-82
2024/02/19 13:36:06;;;;;;;0.10;0.10;;;;;;;;;;5012659;28;20490;-82
2024/02/19 13:38:32;;;;;;;0.10;0.10;;;;;;;;;;4996421;28;20046;-82
2024/02/19 13:41:00;;;;;;;0.10;0.10;;;;;;;;;;4996347;28;20124;-82
2024/02/19 13:43:26;;;;;;;0.10;0.10;;;;;;;;;;4996561;28;20034;-85
2024/02/19 13:45:56;;;;;;;0.10;0.10;;;;;;;;;;4996136;28;20041;-82
2024/02/19 13:48:24;;;;;;;0.10;0.10;;;;;;;;;;4996095;28;20057;-82
2024/02/19 13:50:50;;;;;;;0.10;0.10;;;;;;;;;;5012607;28;20064;-83
2024/02/19 13:53:17;;;;;;;0.10;0.10;;;;;;;;;;4996248;28;20508;-86
2024/02/19 13:55:43;;;;;;;0.20;0.20;;;;;;;;;;5005232;28;20210;-86
2024/02/19 13:58:09;;;;;;;0.10;0.10;;;;;;;;;;5012163;28;20101;-85
2024/02/19 14:00:35;;;;;;;0.10;0.10;;;;;;;;;;5011846;28;20044;-86
2024/02/19 14:03:01;;;;;;;0.20;0.20;;;;;;;;;;5012091;28;20042;-85
2024/02/19 14:05:33;;;;;;;0.10;0.10;;;;;;;;;;5027898;28;20034;-86
2024/02/19 14:08:00;;;;;;;0.10;0.10;;;;;;;;;;5011887;28;20124;-86
2024/02/19 14:10:26;;;;;;;0.65;0.28;;;;;;;;;;5011800;28;20124;-86
2024/02/19 14:12:52;;;;;;;0.20;0.20;;;;;;;;;;5011775;28;20493;-86
2024/02/19 14:15:18;;;;;;;0.20;0.20;;;;;;;;;;5011326;28;20088;-86
2024/02/19 14:17:44;;;;;;;0.20;0.20;;;;;;;;;;5011911;28;20077;-86
2024/02/19 14:20:10;;;;;;;0.20;0.20;;;;;;;;;;5011673;28;20512;-87
2024/02/19 14:22:38;;;;;;;0.10;0.10;;;;;;;;;;5011958;28;20133;-86
2024/02/19 14:25:09;;;;;;;0.10;0.10;;;;;;;;;;5011680;28;20034;-86
2024/02/19 14:27:38;;;;;;;0.20;0.20;;;;;;;;;;5011756;28;20046;-89
2024/02/19 14:30:14;;;;;;;0.10;0.10;;;;;;;;;;5011791;28;20176;-86
2024/02/19 14:32:41;;;;;;;0.15;0.15;;;;;;;;;;5011801;28;20137;-87
2024/02/19 14:35:10;;;;;;;0.20;0.20;;;;;;;;;;5011831;28;20049;-87
2024/02/19 14:37:40;;;;;;;0.20;0.20;;;;;;;;;;5011844;28;20406;-87